Time;durP1;ratioP1;P1;durP2;ratioP2;P2;SDS_P1;SDS_P2;PMS_P1;PMS_P2;Temp;Humidity;BMP_temperature;BMP_pressure;BME280_temperature;BME280_humidity;BME280_pressure;Samples;Min_cycle;Max_cycle;Signal;HPM_P1;HPM_P2
2023/06/03 00:00:43;;;;;;;8.23;2.30;;;;;;;20.04;37.55;101980.63;16117562;19;130319;-51
2023/06/03 00:06:06;;;;;;;6.28;1.98;;;;;;;20.04;37.59;101977.84;16120803;19;130471;-48
2023/06/03 00:11:28;;;;;;;5.65;1.90;;;;;;;20.03;37.68;101982.53;16117799;19;129975;-50
2023/06/03 00:16:50;;;;;;;9.93;1.92;;;;;;;20.04;38.04;101977.84;16121520;19;134190;-48
2023/06/03 00:22:12;;;;;;;7.30;2.15;;;;;;;20.03;37.81;101984.50;16120840;19;129676;-50
2023/06/03 00:27:34;;;;;;;5.05;1.73;;;;;;;20.01;37.60;101972.75;16123726;19;129475;-52
2023/06/03 00:32:57;;;;;;;7.55;2.42;;;;;;;19.99;37.97;101976.59;16116910;19;130447;-49
2023/06/03 00:38:18;;;;;;;5.05;2.30;;;;;;;19.98;38.01;101974.88;16121915;19;130710;-50
2023/06/03 00:43:41;;;;;;;5.55;2.17;;;;;;;19.98;37.75;101963.75;16120496;19;130674;-44
2023/06/03 00:49:03;;;;;;;5.63;1.80;;;;;;;19.97;37.70;101967.63;16117640;19;131407;-48
2023/06/03 00:54:26;;;;;;;6.20;1.88;;;;;;;19.98;37.93;101968.47;16117398;19;129551;-49
2023/06/03 00:59:51;;;;;;;4.90;2.08;;;;;;;19.96;37.96;101965.91;16106163;19;129619;-43
2023/06/03 01:05:14;;;;;;;5.07;2.28;;;;;;;19.97;37.86;101964.00;16112787;19;130868;-45
2023/06/03 01:11:00;;;;;;;5.78;1.90;;;;;;;19.97;38.05;101950.94;16116315;19;132184;-45
2023/06/03 01:16:25;;;;;;;6.45;2.20;;;;;;;19.94;38.10;101954.19;16115496;19;131155;-47
2023/06/03 01:21:49;;;;;;;6.03;2.00;;;;;;;19.93;38.23;101954.44;16114192;19;129880;-46
2023/06/03 01:27:12;;;;;;;4.28;2.03;;;;;;;19.93;37.60;101948.88;16113297;19;129696;-44
2023/06/03 01:32:35;;;;;;;3.40;1.70;;;;;;;19.94;38.13;101945.03;16109700;19;130372;-46
2023/06/03 01:37:57;;;;;;;7.28;2.00;;;;;;;19.93;37.93;101944.19;16110967;19;131794;-44
2023/06/03 01:43:19;;;;;;;5.57;2.03;;;;;;;19.93;37.92;101938.63;16110516;19;130996;-45
2023/06/03 01:48:41;;;;;;;5.75;1.73;;;;;;;19.93;37.90;101943.31;16109545;19;130794;-45
2023/06/03 01:54:03;;;;;;;6.55;2.28;;;;;;;19.92;38.23;101936.94;16106970;19;131329;-46
2023/06/03 01:59:25;;;;;;;3.90;1.67;;;;;;;19.91;38.23;101939.91;16111702;19;132887;-44
2023/06/03 02:04:48;;;;;;;5.88;1.80;;;;;;;19.90;38.04;101939.09;16107963;19;131105;-44
2023/06/03 02:10:10;;;;;;;3.78;1.92;;;;;;;19.90;37.76;101939.09;16111350;19;133536;-43
2023/06/03 02:15:31;;;;;;;3.05;1.58;;;;;;;19.90;37.89;101939.09;16108600;19;131021;-44
2023/06/03 02:20:53;;;;;;;5.60;2.08;;;;;;;19.89;37.85;101942.94;16108634;19;131373;-45
2023/06/03 02:26:15;;;;;;;3.60;1.75;;;;;;;19.88;38.21;101935.69;16108500;19;130719;-47
2023/06/03 02:31:37;;;;;;;5.88;2.20;;;;;;;19.88;38.28;101945.94;16109297;19;130679;-44
2023/06/03 02:36:59;;;;;;;3.42;1.63;;;;;;;19.88;37.99;101940.41;16107026;19;130614;-46
2023/06/03 02:42:21;;;;;;;4.13;2.40;;;;;;;19.87;37.98;101935.94;16107208;19;129568;-43
2023/06/03 02:47:43;;;;;;;7.78;2.15;;;;;;;19.86;38.05;101935.06;16105618;19;130867;-45
2023/06/03 02:53:05;;;;;;;4.07;2.00;;;;;;;19.85;37.89;101938.91;16109510;19;130540;-45
2023/06/03 02:58:27;;;;;;;5.35;2.00;;;;;;;19.85;37.70;101944.47;16106104;19;129586;-44
2023/06/03 03:03:49;;;;;;;4.82;2.03;;;;;;;19.85;38.22;101952.78;16103767;19;129774;-47
2023/06/03 03:09:11;;;;;;;4.65;2.08;;;;;;;19.84;38.02;101951.09;16105793;19;129663;-48
2023/06/03 03:14:33;;;;;;;5.43;2.38;;;;;;;19.83;37.99;101952.16;16101882;19;130663;-46
2023/06/03 03:19:55;;;;;;;5.72;1.80;;;;;;;19.83;37.84;101943.84;16102735;19;135237;-43
2023/06/03 03:25:18;;;;;;;3.85;2.13;;;;;;;19.82;38.37;101956.03;16103853;19;133761;-48
2023/06/03 03:30:40;;;;;;;5.43;1.98;;;;;;;19.81;37.78;101955.19;16105982;19;129462;-47
2023/06/03 03:36:10;;;;;;;3.80;2.00;;;;;;;19.81;38.20;101954.34;16100577;19;130763;-46
2023/06/03 03:41:32;;;;;;;4.70;1.90;;;;;;;19.79;37.95;101953.72;16103593;19;129859;-45
2023/06/03 03:47:03;;;;;;;7.90;2.28;;;;;;;19.80;37.92;101955.44;16103515;19;129248;-42
2023/06/03 03:52:29;;;;;;;5.68;1.85;;;;;;;19.78;37.76;101952.03;16103000;19;130918;-45
2023/06/03 03:57:52;;;;;;;5.43;2.00;;;;;;;19.77;38.12;101955.88;16105999;19;133595;-44
2023/06/03 04:03:14;;;;;;;6.60;1.95;;;;;;;19.77;37.88;101964.22;16102529;19;131718;-43
2023/06/03 04:08:40;;;;;;;7.00;2.17;;;;;;;19.75;37.88;101964.44;16102185;19;129511;-44
2023/06/03 04:14:06;;;;;;;4.97;1.88;;;;;;;19.75;37.68;101980.25;16106758;19;131894;-43
2023/06/03 04:19:36;;;;;;;3.80;1.83;;;;;;;19.74;37.74;101973.00;16119983;19;130047;-43
2023/06/03 04:25:07;;;;;;;3.75;2.00;;;;;;;19.73;37.61;101976.84;16119531;19;131003;-44
2023/06/03 04:30:28;;;;;;;3.40;1.88;;;;;;;19.72;38.13;101967.69;16115135;19;130626;-46
2023/06/03 04:35:51;;;;;;;5.25;2.22;;;;;;;19.71;37.79;101967.88;16119023;19;129746;-45
2023/06/03 04:41:15;;;;;;;5.53;2.10;;;;;;;19.68;37.56;101970.06;16115559;19;130158;-45
2023/06/03 04:46:40;;;;;;;5.75;2.30;;;;;;;19.68;37.65;101975.63;16111718;19;129874;-43
2023/06/03 04:52:02;;;;;;;7.17;2.50;;;;;;;19.69;38.04;101968.97;16116286;19;129901;-42
2023/06/03 04:57:23;;;;;;;5.05;2.25;;;;;;;19.69;37.57;101968.97;16111842;19;130733;-45
2023/06/03 05:02:54;;;;;;;5.15;2.28;;;;;;;19.69;37.87;101965.34;16115439;19;129743;-43
2023/06/03 05:08:18;;;;;;;4.35;2.00;;;;;;;19.69;37.77;101976.44;16115857;19;129814;-44
2023/06/03 05:13:40;;;;;;;6.82;2.25;;;;;;;19.69;37.64;101976.44;16110724;19;131891;-43
2023/06/03 05:19:02;;;;;;;5.35;2.33;;;;;;;19.68;37.95;101969.19;16116225;19;130122;-46
2023/06/03 05:24:24;;;;;;;5.88;2.10;;;;;;;19.71;37.66;101979.00;16111618;19;129833;-47
2023/06/03 05:29:46;;;;;;;5.07;2.00;;;;;;;19.69;37.59;101971.72;16116575;19;129479;-43
2023/06/03 05:35:09;;;;;;;3.33;2.00;;;;;;;19.71;37.71;101979.00;16111937;19;129480;-44
2023/06/03 05:40:31;;;;;;;7.35;2.13;;;;;;;19.70;37.55;101978.16;16115135;19;129954;-46
2023/06/03 05:45:53;;;;;;;4.88;2.03;;;;;;;19.71;37.78;101987.31;16109854;19;130055;-47
2023/06/03 05:51:15;;;;;;;4.72;2.20;;;;;;;19.72;37.93;101984.34;16110523;19;134710;-44
2023/06/03 05:56:37;;;;;;;4.53;2.35;;;;;;;19.73;37.53;101987.94;16111029;19;130528;-43
2023/06/03 06:01:59;;;;;;;7.35;2.20;;;;;;;19.73;38.01;101987.94;16110728;19;132259;-43
2023/06/03 06:07:21;;;;;;;3.78;1.90;;;;;;;19.73;37.53;101977.72;16107067;19;130255;-44
2023/06/03 06:12:43;;;;;;;4.85;2.20;;;;;;;19.73;37.55;101980.47;16111450;19;129264;-45
2023/06/03 06:18:04;;;;;;;6.25;2.40;;;;;;;19.74;37.49;101978.53;16107361;19;129678;-43
2023/06/03 06:23:26;;;;;;;6.45;2.10;;;;;;;19.79;37.59;102000.94;16103928;19;131270;-42
2023/06/03 06:28:48;;;;;;;8.23;2.20;;;;;;;19.90;37.84;101979.88;16107259;19;129844;-49
2023/06/03 06:34:16;;;;;;;4.95;2.10;;;;;;;20.05;37.39;101985.13;16107760;19;131783;-45
2023/06/03 06:39:48;;;;;;;8.63;2.45;;;;;;;20.18;37.56;101987.75;16112071;19;131542;-45
2023/06/03 06:45:19;;;;;;;10.27;2.75;;;;;;;20.27;37.28;101986.34;16108817;19;129925;-43
2023/06/03 06:50:47;;;;;;;7.70;2.65;;;;;;;20.38;36.82;101994.97;16111551;19;130682;-41
2023/06/03 06:56:09;;;;;;;12.10;2.90;;;;;;;20.48;37.01;101992.50;16110010;19;130092;-44
2023/06/03 07:01:31;;;;;;;8.32;2.63;;;;;;;20.61;36.63;101994.28;16108429;19;130874;-44
2023/06/03 07:06:53;;;;;;;9.73;2.90;;;;;;;20.73;37.12;102002.66;16105012;19;130945;-45
2023/06/03 07:12:15;;;;;;;9.02;2.45;;;;;;;20.84;37.13;101996.34;16105115;19;130891;-44
2023/06/03 07:17:37;;;;;;;7.38;2.20;;;;;;;20.96;36.99;101992.75;16106926;19;131205;-46
2023/06/03 07:22:59;;;;;;;8.32;2.25;;;;;;;21.03;36.98;101997.13;16106040;19;129933;-47
2023/06/03 07:28:32;;;;;;;8.57;2.83;;;;;;;21.10;37.15;102001.75;16105112;19;129634;-41
2023/06/03 07:33:56;;;;;;;6.32;2.50;;;;;;;21.13;37.06;101999.34;16107504;19;130881;-44
2023/06/03 07:39:20;;;;;;;7.40;1.98;;;;;;;21.14;36.59;102003.84;16106282;19;129711;-45
2023/06/03 07:44:44;;;;;;;6.23;2.37;;;;;;;21.15;36.65;102004.66;16101208;19;130666;-45
2023/06/03 07:50:23;;;;;;;6.68;1.85;;;;;;;21.16;36.61;102001.66;16109227;19;130680;-42
2023/06/03 07:55:45;;;;;;;8.23;2.55;;;;;;;21.15;36.34;101999.97;16120795;19;129467;-43
2023/06/03 08:01:09;;;;;;;9.70;2.53;;;;;;;21.16;36.41;102010.00;16123912;19;130423;-42
2023/06/03 08:06:36;;;;;;;5.70;2.10;;;;;;;21.17;35.65;102003.34;16119068;19;130651;-43
2023/06/03 08:12:01;;;;;;;3.47;1.70;;;;;;;21.18;35.50;102007.81;16122310;19;131239;-42
2023/06/03 08:17:37;;;;;;;5.33;1.70;;;;;;;21.19;35.83;102001.16;16120386;19;130240;-47
2023/06/03 08:23:00;;;;;;;5.22;1.75;;;;;;;21.19;35.72;102000.34;16113671;19;130274;-45
2023/06/03 08:28:22;;;;;;;9.52;1.85;;;;;;;21.21;35.37;101999.00;16114271;19;130001;-42
2023/06/03 08:33:44;;;;;;;7.15;2.08;;;;;;;21.21;35.14;101992.59;16116674;19;131481;-44
2023/06/03 08:39:07;;;;;;;8.63;2.22;;;;;;;21.20;35.07;101996.47;16115129;19;130213;-48
2023/06/03 08:44:44;;;;;;;6.43;2.20;;;;;;;21.20;33.98;101990.91;16121738;19;129434;-43
2023/06/03 08:50:10;;;;;;;7.28;1.80;;;;;;;21.19;33.69;101984.47;16118056;19;129659;-46
2023/06/03 08:55:33;;;;;;;8.82;1.85;;;;;;;21.18;33.88;101982.78;16121891;19;130723;-44
2023/06/03 09:00:56;;;;;;;17.05;1.75;;;;;;;21.19;33.42;101978.06;16118335;19;130896;-43
2023/06/03 09:06:18;;;;;;;12.18;2.65;;;;;;;21.23;33.16;101984.88;16117851;19;131262;-46
2023/06/03 09:11:44;;;;;;;6.63;1.90;;;;;;;21.22;33.09;101985.94;16105465;19;131559;-46
2023/06/03 09:17:06;;;;;;;8.95;2.05;;;;;;;21.23;33.13;101982.09;16112772;19;130321;-48
2023/06/03 09:22:29;;;;;;;6.50;1.40;;;;;;;21.26;32.58;101984.38;16104974;19;132021;-46
2023/06/03 09:27:51;;;;;;;9.50;1.35;;;;;;;21.29;32.47;101983.06;16115379;19;131012;-45
2023/06/03 09:33:15;;;;;;;13.05;1.83;;;;;;;21.30;32.15;101985.59;16115656;19;129576;-44
2023/06/03 09:38:56;;;;;;;17.88;1.67;;;;;;;21.26;31.25;101997.44;16112605;19;131366;-46
2023/06/03 09:44:18;;;;;;;9.80;2.05;;;;;;;21.22;31.33;101995.13;16109680;19;130099;-40
2023/06/03 09:50:04;;;;;;;11.52;1.50;;;;;;;21.27;30.90;101974.94;16116726;19;131090;-44
2023/06/03 09:55:30;;;;;;;9.10;1.87;;;;;;;21.31;31.15;101984.50;16117088;19;130115;-46
2023/06/03 10:00:55;;;;;;;7.80;1.77;;;;;;;21.31;30.73;101980.88;16113835;19;129669;-38
2023/06/03 10:06:17;;;;;;;4.75;1.50;;;;;;;21.29;30.79;101992.25;16105192;19;131311;-41
2023/06/03 10:11:50;;;;;;;11.23;1.52;;;;;;;21.29;30.94;101980.28;16104410;19;131505;-42
2023/06/03 10:17:13;;;;;;;5.03;1.70;;;;;;;21.27;30.80;101968.53;16111039;19;130479;-40
2023/06/03 10:22:35;;;;;;;9.27;1.90;;;;;;;21.25;30.72;101977.09;16113263;19;129254;-44
2023/06/03 10:27:57;;;;;;;11.73;1.60;;;;;;;21.25;30.66;101976.25;16108897;19;130209;-41
2023/06/03 10:33:21;;;;;;;9.40;1.48;;;;;;;21.23;30.70;101979.31;16099258;19;131152;-42
2023/06/03 10:38:43;;;;;;;14.68;1.90;;;;;;;21.18;30.69;101974.44;16110114;19;129441;-44
2023/06/03 10:44:05;;;;;;;2.95;1.33;;;;;;;21.16;30.59;101979.41;16112450;19;129517;-44
2023/06/03 10:49:41;;;;;;;6.68;1.35;;;;;;;21.16;30.53;101973.84;16110444;19;131466;-42
2023/06/03 10:55:37;;;;;;;6.35;1.63;;;;;;;21.19;30.23;101976.13;16105142;19;131401;-45
2023/06/03 11:01:04;;;;;;;4.28;1.33;;;;;;;21.24;30.14;101969.84;16108769;19;131043;-45
2023/06/03 11:06:26;;;;;;;7.57;1.27;;;;;;;21.25;29.80;101976.25;16112544;19;130029;-42
2023/06/03 11:11:50;;;;;;;6.35;1.50;;;;;;;21.28;29.78;101973.00;16107787;19;130621;-42
2023/06/03 11:17:13;;;;;;;8.30;2.08;;;;;;;21.28;29.05;101953.53;16112033;19;130370;-41
2023/06/03 11:22:37;;;;;;;4.93;1.63;;;;;;;21.21;29.34;101953.66;16103560;19;129624;-47
2023/06/03 11:28:28;;;;;;;11.13;1.85;;;;;;;21.24;29.13;101952.31;16108178;19;130874;-42
2023/06/03 11:34:20;;;;;;;8.77;2.20;;;;;;;21.26;29.44;101961.28;16109499;19;130459;-42
2023/06/03 11:40:07;;;;;;;9.40;2.13;;;;;;;21.29;28.76;101969.16;16106378;19;131271;-45
2023/06/03 11:45:29;;;;;;;7.15;2.40;;;;;;;21.27;28.65;101957.41;16096282;19;130214;-44
2023/06/03 11:50:59;;;;;;;6.75;1.92;;;;;;;21.28;28.28;101953.53;16108034;19;130605;-48
2023/06/03 11:56:25;;;;;;;5.47;1.90;;;;;;;21.27;28.41;101947.09;16105636;19;129865;-48
2023/06/03 12:02:03;;;;;;;5.65;1.60;;;;;;;21.27;28.04;101941.53;16104963;19;129949;-49
2023/06/03 12:07:25;;;;;;;3.42;1.30;;;;;;;21.27;28.30;101937.91;16106982;19;131360;-47
2023/06/03 12:12:52;;;;;;;6.18;1.30;;;;;;;21.28;27.92;101942.41;16099344;19;130721;-46
2023/06/03 12:18:14;;;;;;;8.40;1.77;;;;;;;21.30;27.98;101934.63;16097388;19;130889;-48
2023/06/03 12:23:36;;;;;;;4.70;1.45;;;;;;;21.31;28.36;101927.97;16104717;19;130035;-50
2023/06/03 12:29:09;;;;;;;6.82;1.35;;;;;;;21.35;27.92;101948.69;16104770;19;130933;-43
2023/06/03 12:34:35;;;;;;;12.50;1.50;;;;;;;21.35;27.69;101932.81;16104926;19;133388;-41
2023/06/03 12:39:58;;;;;;;7.55;1.42;;;;;;;21.34;27.11;101935.84;16124091;19;130151;-43
2023/06/03 12:45:24;;;;;;;7.65;1.30;;;;;;;21.34;27.41;101942.28;16115393;19;130090;-42
2023/06/03 12:50:46;;;;;;;220.43;11.90;;;;;;;21.34;27.84;101933.06;16116930;19;130723;-42
2023/06/03 12:56:08;;;;;;;28.92;3.17;;;;;;;21.35;28.24;101935.59;16114862;19;130115;-41
2023/06/03 13:01:30;;;;;;;16.17;1.80;;;;;;;21.35;27.92;101921.69;16121489;19;129901;-42
2023/06/03 13:06:53;;;;;;;16.27;1.98;;;;;;;21.34;28.51;101919.16;16119636;19;130475;-47
2023/06/03 13:12:15;;;;;;;15.48;1.60;;;;;;;21.33;28.72;101918.31;16117540;19;130134;-43
2023/06/03 13:17:37;;;;;;;14.48;1.92;;;;;;;21.32;28.63;101912.97;16120576;19;130158;-43
2023/06/03 13:22:59;;;;;;;10.50;1.75;;;;;;;21.31;29.34;101911.28;16118341;19;130250;-44
2023/06/03 13:28:21;;;;;;;12.10;2.00;;;;;;;21.33;29.42;101911.91;16118530;19;131304;-44
2023/06/03 13:33:43;;;;;;;11.70;1.70;;;;;;;21.30;29.49;101902.09;16115856;19;130547;-41
2023/06/03 13:39:05;;;;;;;8.32;1.48;;;;;;;21.29;29.39;101902.34;16118483;19;130371;-43
2023/06/03 13:44:29;;;;;;;28.90;2.78;;;;;;;21.29;29.54;101902.34;16106259;19;132160;-41
2023/06/03 13:49:51;;;;;;;17.47;3.03;;;;;;;21.29;29.31;101900.41;16110409;19;130237;-41
2023/06/03 13:55:15;;;;;;;19.45;1.85;;;;;;;21.29;29.24;101899.56;16102675;19;131978;-42
2023/06/03 14:00:37;;;;;;;15.65;1.90;;;;;;;21.27;29.19;101901.75;16110753;19;129443;-43
2023/06/03 14:05:59;;;;;;;11.75;1.63;;;;;;;21.27;29.60;101890.59;16117305;19;129734;-43
2023/06/03 14:11:22;;;;;;;8.50;1.50;;;;;;;21.22;29.14;101886.59;16113274;19;129568;-44
2023/06/03 14:16:44;;;;;;;10.85;1.60;;;;;;;21.21;29.37;101882.13;16115127;19;129882;-42
2023/06/03 14:22:06;;;;;;;6.70;1.40;;;;;;;21.19;29.00;101878.72;16114417;19;131379;-46
2023/06/03 14:27:28;;;;;;;11.13;1.10;;;;;;;21.17;29.11;101858.63;16107839;19;130771;-42
2023/06/03 14:32:50;;;;;;;29.60;2.75;;;;;;;21.19;29.07;101862.03;16110466;19;129973;-42
2023/06/03 14:38:12;;;;;;;14.43;2.05;;;;;;;21.19;29.62;101864.81;16111852;19;130358;-47
2023/06/03 14:43:34;;;;;;;14.00;2.17;;;;;;;21.20;29.52;101872.06;16112740;19;130371;-45
2023/06/03 14:48:56;;;;;;;6.68;1.48;;;;;;;21.21;29.73;101865.41;16110990;19;131137;-43
2023/06/03 14:54:18;;;;;;;8.23;1.52;;;;;;;21.21;29.94;101857.06;16111549;19;130013;-45
2023/06/03 14:59:40;;;;;;;17.83;1.83;;;;;;;21.22;29.50;101839.28;16112802;19;131873;-42
2023/06/03 15:05:02;;;;;;;6.40;1.73;;;;;;;21.22;29.48;101847.63;16106741;19;130072;-42
2023/06/03 15:10:25;;;;;;;9.27;1.70;;;;;;;21.25;29.93;101862.16;16106973;19;130449;-42
2023/06/03 15:15:47;;;;;;;8.85;1.60;;;;;;;21.26;29.86;101850.78;16107760;19;132244;-46
2023/06/03 15:21:09;;;;;;;31.75;2.67;;;;;;;21.26;30.00;101853.56;16107738;19;129477;-42
2023/06/03 15:26:30;;;;;;;25.48;3.17;;;;;;;21.27;29.77;101852.47;16109216;19;132974;-46
2023/06/03 15:31:52;;;;;;;11.45;1.80;;;;;;;21.26;29.69;101841.59;16106057;19;129790;-45
2023/06/03 15:37:14;;;;;;;56.83;4.47;;;;;;;21.23;29.50;101848.50;16109648;19;130030;-41
2023/06/03 15:42:36;;;;;;;29.13;2.38;;;;;;;21.24;29.51;101846.56;16101884;19;131481;-43
2023/06/03 15:47:58;;;;;;;25.80;2.20;;;;;;;21.25;29.51;101842.69;16105488;19;130866;-42
2023/06/03 15:53:20;;;;;;;21.70;3.22;;;;;;;21.27;29.02;101840.50;16105941;19;129326;-45
2023/06/03 15:58:42;;;;;;;17.85;4.35;;;;;;;21.26;29.28;101833.25;16102197;19;129895;-44
2023/06/03 16:04:04;;;;;;;19.10;3.45;;;;;;;21.23;29.30;101831.81;16102219;19;130548;-48
2023/06/03 16:09:26;;;;;;;10.80;2.85;;;;;;;21.24;29.09;101835.41;16106628;19;130057;-45
2023/06/03 16:14:48;;;;;;;9.18;2.88;;;;;;;21.25;28.92;101828.78;16123048;19;130086;-45
2023/06/03 16:20:10;;;;;;;8.85;2.22;;;;;;;21.25;28.85;101828.78;16114230;19;132000;-43
2023/06/03 16:25:32;;;;;;;8.80;2.25;;;;;;;21.27;28.71;101823.81;16115260;19;130824;-43
2023/06/03 16:30:54;;;;;;;6.35;2.17;;;;;;;21.26;28.91;101817.38;16119982;19;130837;-43
2023/06/03 16:36:16;;;;;;;6.53;1.85;;;;;;;21.27;28.64;101834.94;16119280;19;129962;-45
2023/06/03 16:41:38;;;;;;;10.05;1.92;;;;;;;21.28;28.47;101828.28;16116343;19;130472;-47
2023/06/03 16:47:00;;;;;;;41.85;4.15;;;;;;;21.28;28.47;101819.94;16113237;19;129648;-45
2023/06/03 16:52:23;;;;;;;10.75;1.77;;;;;;;21.25;28.04;101823.19;16119785;19;129578;-43
2023/06/03 16:57:45;;;;;;;14.20;2.00;;;;;;;21.23;28.21;101823.47;16116961;19;130293;-45
2023/06/03 17:03:09;;;;;;;7.38;1.50;;;;;;;21.27;28.24;101821.03;16115904;19;131115;-43
2023/06/03 17:08:31;;;;;;;14.40;1.20;;;;;;;21.26;28.07;101820.16;16118504;19;131153;-46
2023/06/03 17:13:53;;;;;;;3.80;1.23;;;;;;;21.30;27.55;101817.75;16117032;19;129861;-41
2023/06/03 17:19:15;;;;;;;19.35;2.00;;;;;;;21.34;27.89;101824.53;16116309;19;131335;-47
2023/06/03 17:24:37;;;;;;;29.58;2.58;;;;;;;21.38;28.35;101828.53;16112205;19;130135;-44
2023/06/03 17:29:59;;;;;;;16.92;2.13;;;;;;;21.37;28.06;101818.47;16121116;19;129548;-43
2023/06/03 17:35:22;;;;;;;19.90;1.90;;;;;;;21.37;28.40;101827.66;16117721;19;129911;-44
2023/06/03 17:40:44;;;;;;;13.43;2.80;;;;;;;21.36;28.30;101820.41;16106604;19;129300;-44
2023/06/03 17:46:07;;;;;;;10.38;1.45;;;;;;;21.37;28.00;101829.59;16104957;19;132180;-41
2023/06/03 17:51:30;;;;;;;15.40;2.30;;;;;;;21.37;27.90;101829.59;16112699;19;131091;-42
2023/06/03 17:56:52;;;;;;;9.82;1.77;;;;;;;21.37;28.39;101824.88;16108052;19;130795;-43
2023/06/03 18:02:14;;;;;;;9.25;1.73;;;;;;;21.37;28.05;101826.81;16109778;19;130838;-46
2023/06/03 18:07:36;;;;;;;10.57;1.85;;;;;;;21.40;27.61;101831.06;16108942;19;132024;-41
2023/06/03 18:13:01;;;;;;;9.57;1.67;;;;;;;21.42;27.61;101828.88;16111101;19;129528;-44
2023/06/03 18:18:23;;;;;;;18.70;1.67;;;;;;;21.45;27.88;101840.38;16111385;19;130422;-43
2023/06/03 18:23:45;;;;;;;10.70;1.58;;;;;;;21.44;28.00;101841.44;16110150;19;129682;-43
2023/06/03 18:29:07;;;;;;;6.90;1.40;;;;;;;21.44;27.48;101844.22;16108662;19;130626;-40
2023/06/03 18:34:29;;;;;;;10.48;1.10;;;;;;;21.43;27.76;101847.28;16103106;19;131471;-43
2023/06/03 18:39:52;;;;;;;5.88;1.10;;;;;;;21.40;27.77;101854.19;16102452;19;134271;-43
2023/06/03 18:45:14;;;;;;;6.10;1.33;;;;;;;21.39;27.75;101862.75;16105839;19;129665;-44
2023/06/03 18:50:37;;;;;;;6.93;1.20;;;;;;;21.36;27.75;101862.16;16105749;19;131206;-43
2023/06/03 18:55:59;;;;;;;8.73;1.48;;;;;;;21.37;27.93;101868.59;16108989;19;130381;-40
2023/06/03 19:01:21;;;;;;;3.25;0.80;;;;;;;21.35;27.80;101865.19;16087571;19;130321;-41
2023/06/03 19:06:44;;;;;;;9.43;1.15;;;;;;;21.31;27.79;101872.31;16049021;19;131551;-40
2023/06/03 19:12:06;;;;;;;2.58;0.80;;;;;;;21.30;27.99;101884.53;16046737;19;131000;-42
2023/06/03 19:17:29;;;;;;;18.38;1.73;;;;;;;21.24;28.21;101879.94;16061964;19;130235;-42
2023/06/03 19:22:51;;;;;;;19.27;1.60;;;;;;;21.21;28.36;101884.06;16061562;19;131156;-40
2023/06/03 19:28:14;;;;;;;9.68;1.17;;;;;;;21.20;28.65;101890.72;16078714;19;131347;-41
2023/06/03 19:33:36;;;;;;;11.98;1.23;;;;;;;21.20;28.76;101888.78;16080717;19;131360;-42
2023/06/03 19:38:58;;;;;;;9.43;1.00;;;;;;;21.22;29.17;101899.69;16056163;19;130338;-41
2023/06/03 19:44:20;;;;;;;14.18;1.60;;;;;;;21.22;29.08;101899.69;16079508;19;130624;-41
2023/06/03 19:49:42;;;;;;;10.13;1.00;;;;;;;21.25;29.40;101899.19;16119143;19;131056;-40
2023/06/03 19:55:04;;;;;;;12.18;1.17;;;;;;;21.24;29.10;101905.00;16096242;19;130733;-40
2023/06/03 20:00:26;;;;;;;7.75;1.10;;;;;;;21.21;29.35;101912.72;16117251;19;131385;-44
2023/06/03 20:05:48;;;;;;;7.43;1.00;;;;;;;21.18;29.06;101915.97;16115806;19;131537;-41
2023/06/03 20:11:10;;;;;;;10.13;1.10;;;;;;;21.14;29.42;101925.06;16119454;19;129538;-40
2023/06/03 20:16:32;;;;;;;6.35;1.35;;;;;;;21.13;29.74;101924.22;16116097;19;131422;-41
2023/06/03 20:21:54;;;;;;;6.00;1.08;;;;;;;21.15;29.43;101933.19;16115026;19;130505;-40
2023/06/03 20:27:17;;;;;;;5.57;0.80;;;;;;;21.16;29.42;101934.88;16119455;19;131655;-42
2023/06/03 20:32:39;;;;;;;8.95;1.02;;;;;;;21.17;29.27;101935.72;16117259;19;131154;-43
2023/06/03 20:38:01;;;;;;;4.22;0.95;;;;;;;21.16;29.23;101943.22;16120048;19;131950;-48
2023/06/03 20:43:23;;;;;;;6.65;1.00;;;;;;;21.17;29.33;101942.13;16117585;19;129910;-48
2023/06/03 20:48:45;;;;;;;9.27;0.95;;;;;;;21.18;29.46;101943.81;16117914;19;130229;-40
2023/06/03 20:54:07;;;;;;;5.78;0.98;;;;;;;21.18;29.47;101954.09;16112441;19;129584;-43
2023/06/03 20:59:29;;;;;;;8.00;1.10;;;;;;;21.16;29.62;101956.28;16117476;19;129709;-38
2023/06/03 21:04:51;;;;;;;11.18;1.08;;;;;;;21.16;29.71;101962.72;16115091;19;133734;-41
2023/06/03 21:10:13;;;;;;;10.77;1.20;;;;;;;21.13;29.77;101965.97;16114489;19;130922;-39
2023/06/03 21:15:35;;;;;;;4.13;1.20;;;;;;;21.09;29.96;101964.72;16115495;19;129634;-38
2023/06/03 21:20:58;;;;;;;10.43;1.00;;;;;;;21.08;29.94;101976.94;16116787;19;130140;-39
2023/06/03 21:26:20;;;;;;;3.30;1.08;;;;;;;21.03;29.90;101974.88;16117578;19;130055;-41
2023/06/03 21:31:42;;;;;;;3.60;0.70;;;;;;;21.00;29.90;101980.91;16119995;19;129677;-39
2023/06/03 21:37:04;;;;;;;7.80;0.90;;;;;;;20.98;30.01;101985.03;16115463;19;130213;-38
2023/06/03 21:42:26;;;;;;;6.15;1.10;;;;;;;20.96;30.00;101985.28;16119490;19;130734;-39
2023/06/03 21:47:48;;;;;;;4.47;1.15;;;;;;;20.94;30.26;101986.56;16120166;19;130541;-39
2023/06/03 21:53:10;;;;;;;4.18;0.88;;;;;;;20.93;29.89;101984.88;16108244;19;129636;-39
2023/06/03 21:58:31;;;;;;;4.45;1.00;;;;;;;20.89;29.71;101987.28;16117294;19;131772;-39
2023/06/03 22:03:54;;;;;;;3.65;0.85;;;;;;;20.87;29.87;101987.53;16116929;19;130722;-38
2023/06/03 22:09:16;;;;;;;3.03;0.88;;;;;;;20.86;29.71;101987.78;16106638;19;130949;-40
2023/06/03 22:14:38;;;;;;;3.05;0.88;;;;;;;20.84;30.17;101993.56;16116463;19;130997;-40
2023/06/03 22:20:00;;;;;;;4.43;1.10;;;;;;;20.83;29.73;101991.84;16110813;19;129785;-38
2023/06/03 22:25:22;;;;;;;5.03;1.00;;;;;;;20.82;29.94;101990.16;16113179;19;131111;-41
2023/06/03 22:30:43;;;;;;;2.75;0.90;;;;;;;20.82;30.08;101998.50;16109347;19;129367;-38
2023/06/03 22:36:05;;;;;;;3.38;1.10;;;;;;;20.82;29.69;101992.94;16104995;19;130080;-41
2023/06/03 22:41:27;;;;;;;4.60;0.85;;;;;;;20.82;30.32;101994.88;16111114;19;131337;-39
2023/06/03 22:46:49;;;;;;;8.00;1.20;;;;;;;20.82;30.20;101995.72;16109603;19;131359;-39
2023/06/03 22:52:11;;;;;;;2.78;0.88;;;;;;;20.81;29.98;101999.59;16110866;19;134764;-39
2023/06/03 22:57:33;;;;;;;7.20;1.00;;;;;;;20.81;30.53;101994.03;16109937;19;129678;-39
2023/06/03 23:02:58;;;;;;;5.53;1.00;;;;;;;20.80;30.39;101997.03;16110345;19;130977;-47
2023/06/03 23:08:20;;;;;;;6.70;1.10;;;;;;;20.80;30.17;102002.59;16109555;19;129312;-45
2023/06/03 23:13:42;;;;;;;5.10;1.20;;;;;;;20.78;30.54;101999.22;16107208;19;130182;-43
2023/06/03 23:19:04;;;;;;;3.75;1.27;;;;;;;20.76;30.38;102005.00;16110434;19;130720;-47
2023/06/03 23:24:26;;;;;;;2.47;1.10;;;;;;;20.75;30.17;102006.06;16105404;19;129512;-44
2023/06/03 23:29:47;;;;;;;2.10;0.93;;;;;;;20.75;30.72;102006.06;16101528;19;130488;-43
2023/06/03 23:35:10;;;;;;;6.13;1.05;;;;;;;20.73;30.32;102003.53;16101678;19;131063;-41
2023/06/03 23:40:33;;;;;;;5.03;1.20;;;;;;;20.72;30.47;102003.75;16107223;19;130430;-42
2023/06/03 23:45:55;;;;;;;3.70;1.10;;;;;;;20.70;30.69;102004.00;16108408;19;130367;-44
2023/06/03 23:51:17;;;;;;;4.28;1.02;;;;;;;20.69;30.54;102001.44;16103760;19;130258;-45
2023/06/03 23:56:39;;;;;;;6.20;1.15;;;;;;;20.68;30.75;102002.50;16102401;19;130689;-45
